sensor_id;sensor_type;location;lat;lon;timestamp;temperature;humidity
18717;DHT22;9487;50.892;6.906;2023-04-03T00:01:50;5.10;99.90
18717;DHT22;9487;50.892;6.906;2023-04-03T00:04:17;5.10;99.90
18717;DHT22;9487;50.892;6.906;2023-04-03T00:06:44;5.10;99.90
18717;DHT22;9487;50.892;6.906;2023-04-03T00:09:10;5.10;99.90
18717;DHT22;9487;50.892;6.906;2023-04-03T00:11:37;5.10;99.90
18717;DHT22;9487;50.892;6.906;2023-04-03T00:14:04;5.00;99.90
18717;DHT22;9487;50.892;6.906;2023-04-03T00:16:32;5.00;99.90
18717;DHT22;9487;50.892;6.906;2023-04-03T00:18:59;5.10;99.90
18717;DHT22;9487;50.892;6.906;2023-04-03T00:21:26;5.00;99.90
18717;DHT22;9487;50.892;6.906;2023-04-03T00:23:52;5.00;99.90
18717;DHT22;9487;50.892;6.906;2023-04-03T00:26:19;5.00;99.90
18717;DHT22;9487;50.892;6.906;2023-04-03T00:28:46;5.00;99.90
18717;DHT22;9487;50.892;6.906;2023-04-03T00:31:14;5.00;99.90
18717;DHT22;9487;50.892;6.906;2023-04-03T00:33:43;5.00;99.90
18717;DHT22;9487;50.892;6.906;2023-04-03T00:36:11;5.00;99.90
18717;DHT22;9487;50.892;6.906;2023-04-03T00:38:39;5.00;99.90
18717;DHT22;9487;50.892;6.906;2023-04-03T00:41:06;5.00;99.90
18717;DHT22;9487;50.892;6.906;2023-04-03T00:43:33;5.00;99.90
18717;DHT22;9487;50.892;6.906;2023-04-03T00:46:00;5.00;99.90
18717;DHT22;9487;50.892;6.906;2023-04-03T00:48:29;5.00;99.90
18717;DHT22;9487;50.892;6.906;2023-04-03T00:50:59;4.90;99.90
18717;DHT22;9487;50.892;6.906;2023-04-03T00:53:30;4.90;99.90
18717;DHT22;9487;50.892;6.906;2023-04-03T00:55:58;4.90;99.90
18717;DHT22;9487;50.892;6.906;2023-04-03T00:58:31;4.90;99.90
18717;DHT22;9487;50.892;6.906;2023-04-03T01:00:58;4.90;99.90
18717;DHT22;9487;50.892;6.906;2023-04-03T01:03:27;4.90;99.90
18717;DHT22;9487;50.892;6.906;2023-04-03T01:05:54;4.80;99.90
18717;DHT22;9487;50.892;6.906;2023-04-03T01:08:22;4.80;99.90
18717;DHT22;9487;50.892;6.906;2023-04-03T01:10:49;4.80;99.90
18717;DHT22;9487;50.892;6.906;2023-04-03T01:13:22;4.80;99.90
18717;DHT22;9487;50.892;6.906;2023-04-03T01:15:49;4.80;99.90
18717;DHT22;9487;50.892;6.906;2023-04-03T01:18:16;4.70;99.90
18717;DHT22;9487;50.892;6.906;2023-04-03T01:27:04;4.70;99.90
18717;DHT22;9487;50.892;6.906;2023-04-03T01:29:33;4.80;99.90
18717;DHT22;9487;50.892;6.906;2023-04-03T01:32:02;4.70;99.90
18717;DHT22;9487;50.892;6.906;2023-04-03T01:34:29;4.60;99.90
18717;DHT22;9487;50.892;6.906;2023-04-03T01:36:56;4.60;99.90
18717;DHT22;9487;50.892;6.906;2023-04-03T01:39:23;4.60;99.90
18717;DHT22;9487;50.892;6.906;2023-04-03T01:41:50;4.70;99.90
18717;DHT22;9487;50.892;6.906;2023-04-03T01:44:17;4.60;99.90
18717;DHT22;9487;50.892;6.906;2023-04-03T01:46:44;4.60;99.90
18717;DHT22;9487;50.892;6.906;2023-04-03T01:49:13;4.50;99.90
18717;DHT22;9487;50.892;6.906;2023-04-03T01:51:40;4.50;99.90
18717;DHT22;9487;50.892;6.906;2023-04-03T01:54:06;4.50;99.90
18717;DHT22;9487;50.892;6.906;2023-04-03T01:56:33;4.40;99.90
18717;DHT22;9487;50.892;6.906;2023-04-03T01:59:00;4.40;99.90
18717;DHT22;9487;50.892;6.906;2023-04-03T02:01:27;4.30;99.90
18717;DHT22;9487;50.892;6.906;2023-04-03T02:03:53;4.30;99.90
18717;DHT22;9487;50.892;6.906;2023-04-03T02:06:22;4.30;99.90
18717;DHT22;9487;50.892;6.906;2023-04-03T02:08:48;4.30;99.90
18717;DHT22;9487;50.892;6.906;2023-04-03T02:11:15;4.20;99.90
18717;DHT22;9487;50.892;6.906;2023-04-03T02:13:42;4.20;99.90
18717;DHT22;9487;50.892;6.906;2023-04-03T02:16:10;4.20;99.90
18717;DHT22;9487;50.892;6.906;2023-04-03T02:18:38;4.20;99.90
18717;DHT22;9487;50.892;6.906;2023-04-03T02:21:05;4.20;99.90
18717;DHT22;9487;50.892;6.906;2023-04-03T02:23:34;4.20;99.90
18717;DHT22;9487;50.892;6.906;2023-04-03T02:26:06;4.20;99.90
18717;DHT22;9487;50.892;6.906;2023-04-03T02:28:33;4.20;99.90
18717;DHT22;9487;50.892;6.906;2023-04-03T02:31:00;4.20;99.90
18717;DHT22;9487;50.892;6.906;2023-04-03T02:33:27;4.20;99.90
18717;DHT22;9487;50.892;6.906;2023-04-03T02:35:54;4.20;99.90
18717;DHT22;9487;50.892;6.906;2023-04-03T02:38:22;4.20;99.90
18717;DHT22;9487;50.892;6.906;2023-04-03T02:40:50;4.30;99.90
18717;DHT22;9487;50.892;6.906;2023-04-03T02:43:17;4.50;99.90
18717;DHT22;9487;50.892;6.906;2023-04-03T02:45:44;4.30;99.90
18717;DHT22;9487;50.892;6.906;2023-04-03T02:48:11;4.10;99.90
18717;DHT22;9487;50.892;6.906;2023-04-03T02:50:40;3.90;99.90
18717;DHT22;9487;50.892;6.906;2023-04-03T02:53:06;3.80;99.90
18717;DHT22;9487;50.892;6.906;2023-04-03T02:55:33;3.60;99.90
18717;DHT22;9487;50.892;6.906;2023-04-03T02:58:02;3.60;99.90
18717;DHT22;9487;50.892;6.906;2023-04-03T03:00:29;3.50;99.90
18717;DHT22;9487;50.892;6.906;2023-04-03T03:02:56;3.50;99.90
18717;DHT22;9487;50.892;6.906;2023-04-03T03:05:22;3.30;99.90
18717;DHT22;9487;50.892;6.906;2023-04-03T03:07:49;3.00;99.90
18717;DHT22;9487;50.892;6.906;2023-04-03T03:10:16;2.90;99.90
18717;DHT22;9487;50.892;6.906;2023-04-03T03:12:43;3.00;99.90
18717;DHT22;9487;50.892;6.906;2023-04-03T03:15:12;2.70;99.90
18717;DHT22;9487;50.892;6.906;2023-04-03T03:17:38;2.80;99.90
18717;DHT22;9487;50.892;6.906;2023-04-03T03:20:07;2.70;99.90
18717;DHT22;9487;50.892;6.906;2023-04-03T03:22:34;2.50;99.90
18717;DHT22;9487;50.892;6.906;2023-04-03T03:25:01;2.40;99.90
18717;DHT22;9487;50.892;6.906;2023-04-03T03:27:28;2.40;99.90
18717;DHT22;9487;50.892;6.906;2023-04-03T03:29:55;2.50;99.90
18717;DHT22;9487;50.892;6.906;2023-04-03T03:32:23;2.60;99.90
18717;DHT22;9487;50.892;6.906;2023-04-03T03:34:50;2.70;99.90
18717;DHT22;9487;50.892;6.906;2023-04-03T03:37:17;2.70;99.90
18717;DHT22;9487;50.892;6.906;2023-04-03T03:39:44;2.60;99.90
18717;DHT22;9487;50.892;6.906;2023-04-03T03:42:10;2.80;99.90
18717;DHT22;9487;50.892;6.906;2023-04-03T03:44:37;2.90;99.90
18717;DHT22;9487;50.892;6.906;2023-04-03T03:47:04;3.10;99.90
18717;DHT22;9487;50.892;6.906;2023-04-03T03:49:33;3.20;99.90
18717;DHT22;9487;50.892;6.906;2023-04-03T03:52:00;3.00;99.90
18717;DHT22;9487;50.892;6.906;2023-04-03T03:54:27;3.00;99.90
18717;DHT22;9487;50.892;6.906;2023-04-03T03:56:54;2.90;99.90
18717;DHT22;9487;50.892;6.906;2023-04-03T03:59:21;2.90;99.90
18717;DHT22;9487;50.892;6.906;2023-04-03T04:01:47;3.00;99.90
18717;DHT22;9487;50.892;6.906;2023-04-03T04:04:14;2.90;99.90
18717;DHT22;9487;50.892;6.906;2023-04-03T04:06:42;3.00;99.90
18717;DHT22;9487;50.892;6.906;2023-04-03T04:09:09;3.10;99.90
18717;DHT22;9487;50.892;6.906;2023-04-03T04:11:36;3.10;99.90
18717;DHT22;9487;50.892;6.906;2023-04-03T04:14:05;3.00;99.90
18717;DHT22;9487;50.892;6.906;2023-04-03T04:16:32;3.00;99.90
18717;DHT22;9487;50.892;6.906;2023-04-03T04:18:58;2.80;99.90
18717;DHT22;9487;50.892;6.906;2023-04-03T04:21:25;3.00;99.90
18717;DHT22;9487;50.892;6.906;2023-04-03T04:23:53;2.90;99.90
18717;DHT22;9487;50.892;6.906;2023-04-03T04:26:20;2.80;99.90
18717;DHT22;9487;50.892;6.906;2023-04-03T04:28:47;2.80;99.90
18717;DHT22;9487;50.892;6.906;2023-04-03T04:31:13;2.90;99.90
18717;DHT22;9487;50.892;6.906;2023-04-03T04:33:40;2.80;99.90
18717;DHT22;9487;50.892;6.906;2023-04-03T04:36:07;2.80;99.90
18717;DHT22;9487;50.892;6.906;2023-04-03T04:38:34;2.70;99.90
18717;DHT22;9487;50.892;6.906;2023-04-03T04:41:02;2.70;99.90
18717;DHT22;9487;50.892;6.906;2023-04-03T04:43:29;2.90;99.90
18717;DHT22;9487;50.892;6.906;2023-04-03T04:46:06;3.00;99.90
18717;DHT22;9487;50.892;6.906;2023-04-03T04:48:35;3.10;99.90
18717;DHT22;9487;50.892;6.906;2023-04-03T04:51:03;3.20;99.90
18717;DHT22;9487;50.892;6.906;2023-04-03T04:53:29;3.10;99.90
18717;DHT22;9487;50.892;6.906;2023-04-03T04:55:56;3.10;99.90
18717;DHT22;9487;50.892;6.906;2023-04-03T04:58:24;3.00;99.90
18717;DHT22;9487;50.892;6.906;2023-04-03T05:00:58;3.00;99.90
18717;DHT22;9487;50.892;6.906;2023-04-03T05:03:25;2.90;99.90
18717;DHT22;9487;50.892;6.906;2023-04-03T05:05:52;2.80;99.90
18717;DHT22;9487;50.892;6.906;2023-04-03T05:08:19;2.90;99.90
18717;DHT22;9487;50.892;6.906;2023-04-03T05:10:46;3.00;99.90
18717;DHT22;9487;50.892;6.906;2023-04-03T05:13:13;3.00;99.90
18717;DHT22;9487;50.892;6.906;2023-04-03T05:15:42;2.90;99.90
18717;DHT22;9487;50.892;6.906;2023-04-03T05:18:09;2.90;99.90
18717;DHT22;9487;50.892;6.906;2023-04-03T05:20:35;2.80;99.90
18717;DHT22;9487;50.892;6.906;2023-04-03T05:23:03;2.70;99.90
18717;DHT22;9487;50.892;6.906;2023-04-03T05:25:30;2.60;99.90
18717;DHT22;9487;50.892;6.906;2023-04-03T05:27:57;2.60;99.90
18717;DHT22;9487;50.892;6.906;2023-04-03T05:30:24;2.60;99.90
18717;DHT22;9487;50.892;6.906;2023-04-03T05:32:52;2.60;99.90
18717;DHT22;9487;50.892;6.906;2023-04-03T05:35:19;2.60;99.90
18717;DHT22;9487;50.892;6.906;2023-04-03T05:37:46;2.60;99.90
18717;DHT22;9487;50.892;6.906;2023-04-03T05:40:12;2.70;99.90
18717;DHT22;9487;50.892;6.906;2023-04-03T05:42:39;2.70;99.90
18717;DHT22;9487;50.892;6.906;2023-04-03T05:45:06;2.70;99.90
18717;DHT22;9487;50.892;6.906;2023-04-03T05:47:36;2.90;99.90
18717;DHT22;9487;50.892;6.906;2023-04-03T05:50:05;3.00;99.90
18717;DHT22;9487;50.892;6.906;2023-04-03T05:52:34;2.90;99.90
18717;DHT22;9487;50.892;6.906;2023-04-03T05:55:01;3.00;99.90
18717;DHT22;9487;50.892;6.906;2023-04-03T05:57:28;2.90;99.90
18717;DHT22;9487;50.892;6.906;2023-04-03T05:59:55;3.00;99.90
18717;DHT22;9487;50.892;6.906;2023-04-03T06:02:24;3.20;99.90
18717;DHT22;9487;50.892;6.906;2023-04-03T06:04:51;3.20;99.90
18717;DHT22;9487;50.892;6.906;2023-04-03T06:07:21;3.30;99.90
18717;DHT22;9487;50.892;6.906;2023-04-03T06:09:48;3.40;99.90
18717;DHT22;9487;50.892;6.906;2023-04-03T06:12:15;3.50;99.90
18717;DHT22;9487;50.892;6.906;2023-04-03T06:14:42;3.60;99.90
18717;DHT22;9487;50.892;6.906;2023-04-03T06:17:09;3.60;99.90
18717;DHT22;9487;50.892;6.906;2023-04-03T06:19:37;3.50;99.90
18717;DHT22;9487;50.892;6.906;2023-04-03T06:22:04;3.70;99.90
18717;DHT22;9487;50.892;6.906;2023-04-03T06:24:32;4.00;99.90
18717;DHT22;9487;50.892;6.906;2023-04-03T06:26:59;4.20;99.90
18717;DHT22;9487;50.892;6.906;2023-04-03T06:29:26;4.30;99.90
18717;DHT22;9487;50.892;6.906;2023-04-03T06:31:53;4.20;99.90
18717;DHT22;9487;50.892;6.906;2023-04-03T06:34:20;4.10;99.90
18717;DHT22;9487;50.892;6.906;2023-04-03T06:36:47;4.40;99.90
18717;DHT22;9487;50.892;6.906;2023-04-03T06:39:17;4.50;99.90
18717;DHT22;9487;50.892;6.906;2023-04-03T06:41:47;4.40;99.90
18717;DHT22;9487;50.892;6.906;2023-04-03T06:44:13;4.50;99.90
18717;DHT22;9487;50.892;6.906;2023-04-03T06:46:42;4.50;99.90
18717;DHT22;9487;50.892;6.906;2023-04-03T06:49:10;4.50;99.90
18717;DHT22;9487;50.892;6.906;2023-04-03T06:51:37;4.80;99.90
18717;DHT22;9487;50.892;6.906;2023-04-03T06:54:05;5.00;99.90
18717;DHT22;9487;50.892;6.906;2023-04-03T06:56:33;5.10;99.90
18717;DHT22;9487;50.892;6.906;2023-04-03T06:59:02;5.20;99.90
18717;DHT22;9487;50.892;6.906;2023-04-03T07:01:30;5.00;99.90
18717;DHT22;9487;50.892;6.906;2023-04-03T07:03:58;5.10;99.90
18717;DHT22;9487;50.892;6.906;2023-04-03T07:06:25;5.30;99.90
18717;DHT22;9487;50.892;6.906;2023-04-03T07:08:53;5.60;99.90
18717;DHT22;9487;50.892;6.906;2023-04-03T07:11:20;5.50;99.90
18717;DHT22;9487;50.892;6.906;2023-04-03T07:13:47;5.70;99.90
18717;DHT22;9487;50.892;6.906;2023-04-03T07:16:16;5.80;99.90
18717;DHT22;9487;50.892;6.906;2023-04-03T07:18:43;5.30;99.90
18717;DHT22;9487;50.892;6.906;2023-04-03T07:21:10;5.40;99.90
18717;DHT22;9487;50.892;6.906;2023-04-03T07:23:37;5.30;99.90
18717;DHT22;9487;50.892;6.906;2023-04-03T07:26:04;5.60;99.90
18717;DHT22;9487;50.892;6.906;2023-04-03T07:28:31;5.80;99.90
18717;DHT22;9487;50.892;6.906;2023-04-03T07:31:00;6.00;99.90
18717;DHT22;9487;50.892;6.906;2023-04-03T07:33:29;5.80;99.90
18717;DHT22;9487;50.892;6.906;2023-04-03T07:35:56;5.90;99.90
18717;DHT22;9487;50.892;6.906;2023-04-03T07:38:23;6.20;99.90
18717;DHT22;9487;50.892;6.906;2023-04-03T07:40:51;6.40;99.90
18717;DHT22;9487;50.892;6.906;2023-04-03T07:43:19;6.00;99.90
18717;DHT22;9487;50.892;6.906;2023-04-03T07:45:48;5.80;99.90
18717;DHT22;9487;50.892;6.906;2023-04-03T07:48:16;6.20;99.90
18717;DHT22;9487;50.892;6.906;2023-04-03T07:50:45;6.40;99.90
18717;DHT22;9487;50.892;6.906;2023-04-03T07:53:12;6.60;99.90
18717;DHT22;9487;50.892;6.906;2023-04-03T07:55:39;6.70;99.90
18717;DHT22;9487;50.892;6.906;2023-04-03T07:58:09;6.60;99.90
18717;DHT22;9487;50.892;6.906;2023-04-03T08:00:36;6.60;99.90
18717;DHT22;9487;50.892;6.906;2023-04-03T08:03:03;6.70;99.90
18717;DHT22;9487;50.892;6.906;2023-04-03T08:05:30;6.70;99.90
18717;DHT22;9487;50.892;6.906;2023-04-03T08:07:59;6.80;99.90
18717;DHT22;9487;50.892;6.906;2023-04-03T08:10:25;6.70;99.90
18717;DHT22;9487;50.892;6.906;2023-04-03T08:12:52;6.90;99.90
18717;DHT22;9487;50.892;6.906;2023-04-03T08:15:19;7.00;99.90
18717;DHT22;9487;50.892;6.906;2023-04-03T08:17:46;6.50;99.90
18717;DHT22;9487;50.892;6.906;2023-04-03T08:20:13;6.40;99.90
18717;DHT22;9487;50.892;6.906;2023-04-03T08:22:39;6.40;99.90
18717;DHT22;9487;50.892;6.906;2023-04-03T08:25:08;6.30;99.90
18717;DHT22;9487;50.892;6.906;2023-04-03T08:27:35;6.40;99.90
18717;DHT22;9487;50.892;6.906;2023-04-03T08:30:03;6.90;99.90
18717;DHT22;9487;50.892;6.906;2023-04-03T08:32:30;7.00;99.90
18717;DHT22;9487;50.892;6.906;2023-04-03T08:34:57;7.30;99.90
18717;DHT22;9487;50.892;6.906;2023-04-03T08:37:24;7.40;99.90
18717;DHT22;9487;50.892;6.906;2023-04-03T08:39:51;7.50;99.90
18717;DHT22;9487;50.892;6.906;2023-04-03T08:42:30;7.00;99.90
18717;DHT22;9487;50.892;6.906;2023-04-03T08:45:05;7.10;99.90
18717;DHT22;9487;50.892;6.906;2023-04-03T08:47:38;6.90;99.90
18717;DHT22;9487;50.892;6.906;2023-04-03T08:50:06;6.50;99.90
18717;DHT22;9487;50.892;6.906;2023-04-03T08:52:36;6.70;99.90
18717;DHT22;9487;50.892;6.906;2023-04-03T08:55:07;7.00;99.90
18717;DHT22;9487;50.892;6.906;2023-04-03T08:57:42;7.40;99.90
18717;DHT22;9487;50.892;6.906;2023-04-03T09:00:17;7.50;99.90
18717;DHT22;9487;50.892;6.906;2023-04-03T09:02:46;7.60;99.90
18717;DHT22;9487;50.892;6.906;2023-04-03T09:05:16;7.70;99.90
18717;DHT22;9487;50.892;6.906;2023-04-03T09:07:46;7.80;99.90
18717;DHT22;9487;50.892;6.906;2023-04-03T09:10:14;7.90;99.90
18717;DHT22;9487;50.892;6.906;2023-04-03T09:12:57;7.90;99.90
18717;DHT22;9487;50.892;6.906;2023-04-03T09:15:26;8.10;99.90
18717;DHT22;9487;50.892;6.906;2023-04-03T09:17:59;7.50;99.90
18717;DHT22;9487;50.892;6.906;2023-04-03T09:20:39;8.90;99.90
18717;DHT22;9487;50.892;6.906;2023-04-03T09:23:17;9.10;99.90
18717;DHT22;9487;50.892;6.906;2023-04-03T09:25:45;9.60;99.90
18717;DHT22;9487;50.892;6.906;2023-04-03T09:28:13;9.40;95.70
18717;DHT22;9487;50.892;6.906;2023-04-03T09:30:40;9.20;94.00
18717;DHT22;9487;50.892;6.906;2023-04-03T09:33:09;8.60;94.80
18717;DHT22;9487;50.892;6.906;2023-04-03T09:35:37;8.70;96.20
18717;DHT22;9487;50.892;6.906;2023-04-03T09:38:16;8.40;94.80
18717;DHT22;9487;50.892;6.906;2023-04-03T09:40:45;8.40;95.30
18717;DHT22;9487;50.892;6.906;2023-04-03T09:43:26;7.70;98.10
18717;DHT22;9487;50.892;6.906;2023-04-03T09:45:53;7.40;99.50
18717;DHT22;9487;50.892;6.906;2023-04-03T09:48:22;7.60;99.90
18717;DHT22;9487;50.892;6.906;2023-04-03T09:50:56;8.00;99.30
18717;DHT22;9487;50.892;6.906;2023-04-03T09:53:36;8.20;94.10
18717;DHT22;9487;50.892;6.906;2023-04-03T09:56:09;8.40;94.00
18717;DHT22;9487;50.892;6.906;2023-04-03T09:58:48;8.70;92.80
18717;DHT22;9487;50.892;6.906;2023-04-03T10:01:27;8.90;91.00
18717;DHT22;9487;50.892;6.906;2023-04-03T10:04:09;8.90;91.20
18717;DHT22;9487;50.892;6.906;2023-04-03T10:06:39;9.10;90.70
18717;DHT22;9487;50.892;6.906;2023-04-03T10:09:18;9.10;91.50
18717;DHT22;9487;50.892;6.906;2023-04-03T10:12:00;9.10;91.20
18717;DHT22;9487;50.892;6.906;2023-04-03T10:14:29;9.30;84.70
18717;DHT22;9487;50.892;6.906;2023-04-03T10:17:02;9.40;77.40
18717;DHT22;9487;50.892;6.906;2023-04-03T10:19:36;9.20;72.70
18717;DHT22;9487;50.892;6.906;2023-04-03T10:22:16;9.10;70.60
18717;DHT22;9487;50.892;6.906;2023-04-03T10:24:51;9.00;78.10
18717;DHT22;9487;50.892;6.906;2023-04-03T10:27:26;9.20;78.90
18717;DHT22;9487;50.892;6.906;2023-04-03T10:29:59;9.00;75.20
18717;DHT22;9487;50.892;6.906;2023-04-03T10:32:45;8.80;71.40
18717;DHT22;9487;50.892;6.906;2023-04-03T10:35:18;9.00;71.70
18717;DHT22;9487;50.892;6.906;2023-04-03T10:37:55;9.20;68.90
18717;DHT22;9487;50.892;6.906;2023-04-03T10:40:30;9.30;67.80
18717;DHT22;9487;50.892;6.906;2023-04-03T10:43:06;9.20;67.40
18717;DHT22;9487;50.892;6.906;2023-04-03T10:45:49;9.30;68.20
18717;DHT22;9487;50.892;6.906;2023-04-03T10:48:23;9.50;68.70
18717;DHT22;9487;50.892;6.906;2023-04-03T10:50:59;9.60;67.70
18717;DHT22;9487;50.892;6.906;2023-04-03T10:53:33;9.70;67.10
18717;DHT22;9487;50.892;6.906;2023-04-03T10:56:08;9.60;65.30
18717;DHT22;9487;50.892;6.906;2023-04-03T10:58:41;9.60;63.80
18717;DHT22;9487;50.892;6.906;2023-04-03T11:01:14;9.50;60.90
18717;DHT22;9487;50.892;6.906;2023-04-03T11:03:46;9.70;60.60
18717;DHT22;9487;50.892;6.906;2023-04-03T11:06:15;9.90;61.20
18717;DHT22;9487;50.892;6.906;2023-04-03T11:08:46;10.10;58.00
18717;DHT22;9487;50.892;6.906;2023-04-03T11:11:17;10.00;55.00
18717;DHT22;9487;50.892;6.906;2023-04-03T11:13:51;10.20;54.70
18717;DHT22;9487;50.892;6.906;2023-04-03T11:16:24;10.40;55.20
18717;DHT22;9487;50.892;6.906;2023-04-03T11:18:56;10.20;55.40
18717;DHT22;9487;50.892;6.906;2023-04-03T11:21:28;10.30;54.20
18717;DHT22;9487;50.892;6.906;2023-04-03T11:23:57;10.30;53.40
18717;DHT22;9487;50.892;6.906;2023-04-03T11:26:29;9.70;52.80
18717;DHT22;9487;50.892;6.906;2023-04-03T11:28:59;9.50;54.80
18717;DHT22;9487;50.892;6.906;2023-04-03T11:34:27;10.10;54.00
18717;DHT22;9487;50.892;6.906;2023-04-03T11:37:00;10.10;50.30
18717;DHT22;9487;50.892;6.906;2023-04-03T11:39:30;10.10;49.10
18717;DHT22;9487;50.892;6.906;2023-04-03T11:42:14;10.10;50.20
18717;DHT22;9487;50.892;6.906;2023-04-03T11:44:42;10.30;52.30
18717;DHT22;9487;50.892;6.906;2023-04-03T11:47:11;10.30;50.40
18717;DHT22;9487;50.892;6.906;2023-04-03T11:49:57;10.40;49.30
18717;DHT22;9487;50.892;6.906;2023-04-03T11:52:56;10.10;48.80
18717;DHT22;9487;50.892;6.906;2023-04-03T11:55:44;10.20;48.60
18717;DHT22;9487;50.892;6.906;2023-04-03T11:58:14;10.20;48.20
18717;DHT22;9487;50.892;6.906;2023-04-03T12:01:00;10.30;49.00
18717;DHT22;9487;50.892;6.906;2023-04-03T12:06:50;10.30;49.20
18717;DHT22;9487;50.892;6.906;2023-04-03T12:09:26;10.50;49.70
18717;DHT22;9487;50.892;6.906;2023-04-03T12:11:55;10.50;48.90
18717;DHT22;9487;50.892;6.906;2023-04-03T12:14:23;10.40;49.50
18717;DHT22;9487;50.892;6.906;2023-04-03T12:16:52;10.50;49.90
18717;DHT22;9487;50.892;6.906;2023-04-03T12:19:37;10.40;49.50
18717;DHT22;9487;50.892;6.906;2023-04-03T12:22:17;9.90;48.90
18717;DHT22;9487;50.892;6.906;2023-04-03T12:24:47;9.90;50.20
18717;DHT22;9487;50.892;6.906;2023-04-03T12:27:33;10.10;49.10
18717;DHT22;9487;50.892;6.906;2023-04-03T12:30:14;10.40;49.10
18717;DHT22;9487;50.892;6.906;2023-04-03T12:32:51;10.50;46.20
18717;DHT22;9487;50.892;6.906;2023-04-03T12:35:24;10.30;44.30
18717;DHT22;9487;50.892;6.906;2023-04-03T12:38:19;10.40;45.40
18717;DHT22;9487;50.892;6.906;2023-04-03T12:40:52;10.20;46.30
18717;DHT22;9487;50.892;6.906;2023-04-03T12:43:33;10.40;48.00
18717;DHT22;9487;50.892;6.906;2023-04-03T12:46:07;10.50;47.20
18717;DHT22;9487;50.892;6.906;2023-04-03T12:48:39;10.50;46.60
18717;DHT22;9487;50.892;6.906;2023-04-03T12:51:16;10.40;45.00
18717;DHT22;9487;50.892;6.906;2023-04-03T12:53:45;10.60;46.50
18717;DHT22;9487;50.892;6.906;2023-04-03T12:56:24;10.80;46.50
18717;DHT22;9487;50.892;6.906;2023-04-03T12:58:53;10.80;44.40
18717;DHT22;9487;50.892;6.906;2023-04-03T13:01:22;10.60;44.10
18717;DHT22;9487;50.892;6.906;2023-04-03T13:03:52;10.10;44.40
18717;DHT22;9487;50.892;6.906;2023-04-03T13:06:23;9.70;45.70
18717;DHT22;9487;50.892;6.906;2023-04-03T13:08:51;9.90;48.00
18717;DHT22;9487;50.892;6.906;2023-04-03T13:11:19;10.10;46.90
18717;DHT22;9487;50.892;6.906;2023-04-03T13:13:55;10.40;47.50
18717;DHT22;9487;50.892;6.906;2023-04-03T13:16:22;10.70;47.50
18717;DHT22;9487;50.892;6.906;2023-04-03T13:18:51;10.80;46.80
18717;DHT22;9487;50.892;6.906;2023-04-03T13:21:21;10.90;46.40
18717;DHT22;9487;50.892;6.906;2023-04-03T13:23:52;11.00;46.60
18717;DHT22;9487;50.892;6.906;2023-04-03T13:26:21;11.00;46.80
18717;DHT22;9487;50.892;6.906;2023-04-03T13:28:50;11.10;46.50
18717;DHT22;9487;50.892;6.906;2023-04-03T13:31:23;10.80;46.00
18717;DHT22;9487;50.892;6.906;2023-04-03T13:33:55;10.80;45.40
18717;DHT22;9487;50.892;6.906;2023-04-03T13:36:26;10.90;45.70
18717;DHT22;9487;50.892;6.906;2023-04-03T13:39:03;10.70;45.20
18717;DHT22;9487;50.892;6.906;2023-04-03T13:41:32;10.80;46.70
18717;DHT22;9487;50.892;6.906;2023-04-03T13:44:14;10.80;46.90
18717;DHT22;9487;50.892;6.906;2023-04-03T13:46:42;10.80;46.60
18717;DHT22;9487;50.892;6.906;2023-04-03T13:49:19;10.80;47.10
18717;DHT22;9487;50.892;6.906;2023-04-03T13:51:48;11.00;46.80
18717;DHT22;9487;50.892;6.906;2023-04-03T13:54:20;10.90;46.60
18717;DHT22;9487;50.892;6.906;2023-04-03T13:56:53;10.90;47.30
18717;DHT22;9487;50.892;6.906;2023-04-03T13:59:23;11.10;48.00
18717;DHT22;9487;50.892;6.906;2023-04-03T14:01:53;11.20;47.30
18717;DHT22;9487;50.892;6.906;2023-04-03T14:04:22;11.00;46.40
18717;DHT22;9487;50.892;6.906;2023-04-03T14:06:52;10.70;46.40
18717;DHT22;9487;50.892;6.906;2023-04-03T14:09:21;10.40;46.00
18717;DHT22;9487;50.892;6.906;2023-04-03T14:11:49;10.60;47.50
18717;DHT22;9487;50.892;6.906;2023-04-03T14:14:21;10.60;47.00
18717;DHT22;9487;50.892;6.906;2023-04-03T14:16:51;10.50;47.60
18717;DHT22;9487;50.892;6.906;2023-04-03T14:19:22;10.60;48.70
18717;DHT22;9487;50.892;6.906;2023-04-03T14:21:49;10.90;48.70
18717;DHT22;9487;50.892;6.906;2023-04-03T14:24:19;10.70;48.60
18717;DHT22;9487;50.892;6.906;2023-04-03T14:26:47;11.00;50.10
18717;DHT22;9487;50.892;6.906;2023-04-03T14:29:15;11.10;49.00
18717;DHT22;9487;50.892;6.906;2023-04-03T14:31:44;11.30;47.90
18717;DHT22;9487;50.892;6.906;2023-04-03T14:34:13;11.40;46.80
18717;DHT22;9487;50.892;6.906;2023-04-03T14:36:40;11.40;47.60
18717;DHT22;9487;50.892;6.906;2023-04-03T14:39:11;11.60;47.30
18717;DHT22;9487;50.892;6.906;2023-04-03T14:41:44;11.40;46.40
18717;DHT22;9487;50.892;6.906;2023-04-03T14:44:11;10.90;46.10
18717;DHT22;9487;50.892;6.906;2023-04-03T14:46:40;11.00;46.40
18717;DHT22;9487;50.892;6.906;2023-04-03T14:49:12;11.10;46.30
18717;DHT22;9487;50.892;6.906;2023-04-03T14:51:40;11.20;45.80
18717;DHT22;9487;50.892;6.906;2023-04-03T14:54:12;11.50;46.30
18717;DHT22;9487;50.892;6.906;2023-04-03T14:56:40;11.80;46.70
18717;DHT22;9487;50.892;6.906;2023-04-03T14:59:12;11.80;45.80
18717;DHT22;9487;50.892;6.906;2023-04-03T15:01:40;11.30;44.40
18717;DHT22;9487;50.892;6.906;2023-04-03T15:04:10;11.30;46.00
18717;DHT22;9487;50.892;6.906;2023-04-03T15:06:38;11.10;46.00
18717;DHT22;9487;50.892;6.906;2023-04-03T15:09:05;10.90;46.70
18717;DHT22;9487;50.892;6.906;2023-04-03T15:11:32;11.20;47.50
18717;DHT22;9487;50.892;6.906;2023-04-03T15:13:59;11.50;48.20
18717;DHT22;9487;50.892;6.906;2023-04-03T15:16:27;11.90;48.70
18717;DHT22;9487;50.892;6.906;2023-04-03T15:18:54;12.10;48.40
18717;DHT22;9487;50.892;6.906;2023-04-03T15:21:21;11.80;47.00
18717;DHT22;9487;50.892;6.906;2023-04-03T15:23:47;11.60;46.90
18717;DHT22;9487;50.892;6.906;2023-04-03T15:26:14;11.30;46.00
18717;DHT22;9487;50.892;6.906;2023-04-03T15:28:42;11.60;47.30
18717;DHT22;9487;50.892;6.906;2023-04-03T15:31:09;12.00;47.20
18717;DHT22;9487;50.892;6.906;2023-04-03T15:33:38;11.90;45.70
18717;DHT22;9487;50.892;6.906;2023-04-03T15:36:05;12.00;46.20
18717;DHT22;9487;50.892;6.906;2023-04-03T15:38:32;12.20;46.40
18717;DHT22;9487;50.892;6.906;2023-04-03T15:40:59;12.40;46.10
18717;DHT22;9487;50.892;6.906;2023-04-03T15:43:25;11.70;45.80
18717;DHT22;9487;50.892;6.906;2023-04-03T15:45:52;11.50;46.90
18717;DHT22;9487;50.892;6.906;2023-04-03T15:48:22;11.30;46.90
18717;DHT22;9487;50.892;6.906;2023-04-03T15:50:51;11.40;47.80
18717;DHT22;9487;50.892;6.906;2023-04-03T15:53:17;11.70;47.90
18717;DHT22;9487;50.892;6.906;2023-04-03T15:55:44;12.00;47.10
18717;DHT22;9487;50.892;6.906;2023-04-03T15:58:11;11.70;45.60
18717;DHT22;9487;50.892;6.906;2023-04-03T16:00:38;11.90;46.80
18717;DHT22;9487;50.892;6.906;2023-04-03T16:03:08;12.00;46.20
18717;DHT22;9487;50.892;6.906;2023-04-03T16:05:37;12.40;47.50
18717;DHT22;9487;50.892;6.906;2023-04-03T16:08:05;12.70;45.90
18717;DHT22;9487;50.892;6.906;2023-04-03T16:10:33;12.80;45.70
18717;DHT22;9487;50.892;6.906;2023-04-03T16:13:00;13.00;44.80
18717;DHT22;9487;50.892;6.906;2023-04-03T16:15:28;13.10;44.70
18717;DHT22;9487;50.892;6.906;2023-04-03T16:17:56;12.80;43.80
18717;DHT22;9487;50.892;6.906;2023-04-03T16:20:24;12.90;44.30
18717;DHT22;9487;50.892;6.906;2023-04-03T16:22:51;13.10;44.50
18717;DHT22;9487;50.892;6.906;2023-04-03T16:25:19;12.90;44.20